createdAt,value
2023-07-26T00:02:39.361Z,15.16
2023-07-26T00:06:17.060Z,15.13
2023-07-26T00:09:55.016Z,15.13
2023-07-26T00:13:34.767Z,15.12
2023-07-26T00:17:28.988Z,15.08
2023-07-26T00:21:15.073Z,15.10
2023-07-26T00:24:44.061Z,15.19
2023-07-26T00:28:38.994Z,15.30
2023-07-26T00:32:05.630Z,15.35
2023-07-26T00:35:44.263Z,15.34
2023-07-26T00:39:21.547Z,15.34
2023-07-26T00:42:58.302Z,15.29
2023-07-26T00:46:36.050Z,15.29
2023-07-26T00:50:13.830Z,15.32
2023-07-26T00:54:12.357Z,15.35
2023-07-26T00:57:37.598Z,15.30
2023-07-26T01:01:15.597Z,15.19
2023-07-26T01:04:53.953Z,15.10
2023-07-26T01:09:08.478Z,15.06
2023-07-26T01:13:02.174Z,15.09
2023-07-26T01:16:31.112Z,15.04
2023-07-26T01:20:28.327Z,15.04
2023-07-26T01:24:14.093Z,15.06
2023-07-26T01:27:42.870Z,15.14
2023-07-26T01:31:39.661Z,15.20
2023-07-26T01:35:06.147Z,15.23
2023-07-26T01:38:44.796Z,15.30
2023-07-26T01:42:20.719Z,15.26
2023-07-26T01:45:57.612Z,15.20
2023-07-26T01:49:35.146Z,15.19
2023-07-26T01:53:32.877Z,15.19
2023-07-26T01:56:58.059Z,15.19
2023-07-26T02:00:54.552Z,15.16
2023-07-26T02:04:20.913Z,15.16
2023-07-26T02:07:58.235Z,15.15
2023-07-26T02:11:35.767Z,15.16
2023-07-26T02:15:13.487Z,15.19
2023-07-26T02:19:09.905Z,15.17
2023-07-26T02:22:37.252Z,15.12
2023-07-26T02:26:14.201Z,15.05
2023-07-26T02:29:51.979Z,15.08
2023-07-26T02:33:29.433Z,15.19
2023-07-26T02:37:10.575Z,15.29
2023-07-26T02:40:45.220Z,15.37
2023-07-26T02:44:22.581Z,15.46
2023-07-26T02:48:00.206Z,15.52
2023-07-26T02:51:37.873Z,15.57
2023-07-26T02:55:17.304Z,15.61
2023-07-26T02:58:53.351Z,15.64
2023-07-26T03:02:32.860Z,15.67
2023-07-26T03:06:08.710Z,15.70
2023-07-26T03:09:46.293Z,15.78
2023-07-26T03:13:24.465Z,15.87
2023-07-26T03:17:15.766Z,15.88
2023-07-26T03:21:05.855Z,15.85
2023-07-26T03:24:50.192Z,15.89
2023-07-26T03:28:36.942Z,15.97
2023-07-26T03:32:01.786Z,15.97
2023-07-26T03:35:58.401Z,15.95
2023-07-26T03:39:43.399Z,15.92
2023-07-26T03:43:08.840Z,15.92
2023-07-26T03:47:04.715Z,16.01
2023-07-26T03:50:29.253Z,16.06
2023-07-26T03:54:11.596Z,16.09
2023-07-26T03:57:47.461Z,15.84
2023-07-26T04:01:22.220Z,15.65
2023-07-26T04:05:19.126Z,15.45
2023-07-26T04:08:43.702Z,15.37
2023-07-26T04:12:22.420Z,15.35
2023-07-26T04:15:59.073Z,15.23
2023-07-26T04:19:56.953Z,15.31
2023-07-26T04:23:43.694Z,15.47
2023-07-26T04:27:09.451Z,15.52
2023-07-26T04:30:50.345Z,15.36
2023-07-26T04:39:26.885Z,15.08
2023-07-26T04:42:51.321Z,14.86
2023-07-26T04:46:29.182Z,14.65
2023-07-26T04:50:08.220Z,14.44
2023-07-26T04:53:44.415Z,14.13
2023-07-26T04:57:22.014Z,13.89
2023-07-26T05:01:00.105Z,13.69
2023-07-26T05:04:57.178Z,13.59
2023-07-26T05:08:40.873Z,13.62
2023-07-26T05:12:24.724Z,13.55
2023-07-26T05:15:49.820Z,13.56
2023-07-26T05:19:27.258Z,13.57
2023-07-26T05:23:04.963Z,13.63
2023-07-26T05:26:44.534Z,13.68
2023-07-26T05:30:41.715Z,13.60
2023-07-26T05:34:25.403Z,13.51
2023-07-26T05:37:51.729Z,13.53
2023-07-26T05:41:32.683Z,13.53
2023-07-26T05:45:07.765Z,13.58
2023-07-26T05:48:44.770Z,13.48
2023-07-26T05:52:21.356Z,13.41
2023-07-26T05:55:58.794Z,13.30
2023-07-26T05:59:36.576Z,13.29
2023-07-26T06:03:34.405Z,13.32
2023-07-26T06:06:59.673Z,13.37
2023-07-26T06:10:37.161Z,13.34
2023-07-26T06:14:15.137Z,13.30
2023-07-26T06:17:52.629Z,13.19
2023-07-26T06:21:50.813Z,13.22
2023-07-26T06:25:15.626Z,13.16
2023-07-26T06:29:15.529Z,13.23
2023-07-26T06:32:42.290Z,13.24
2023-07-26T06:36:19.724Z,13.17
2023-07-26T06:39:57.180Z,13.11
2023-07-26T06:43:35.520Z,13.05
2023-07-26T06:47:33.160Z,13.07
2023-07-26T06:50:59.754Z,13.06
2023-07-26T06:54:37.693Z,13.06
2023-07-26T06:58:13.699Z,13.14
2023-07-26T07:01:51.629Z,13.17
2023-07-26T07:05:30.828Z,13.24
2023-07-26T07:09:06.634Z,13.31
2023-07-26T07:12:45.560Z,13.37
2023-07-26T07:16:24.746Z,13.33
2023-07-26T07:20:18.589Z,13.31
2023-07-26T07:23:47.631Z,13.35
2023-07-26T07:27:47.707Z,13.34
2023-07-26T07:31:15.093Z,13.41
2023-07-26T07:35:10.543Z,13.46
2023-07-26T07:38:35.732Z,13.46
2023-07-26T07:42:32.529Z,13.46
2023-07-26T07:45:57.596Z,13.46
2023-07-26T07:49:35.180Z,13.43
2023-07-26T07:53:14.149Z,13.37
2023-07-26T07:56:50.723Z,13.34
2023-07-26T08:00:28.481Z,13.26
2023-07-26T08:04:06.083Z,13.27
2023-07-26T08:08:02.908Z,13.29
2023-07-26T08:11:47.943Z,13.30
2023-07-26T08:15:14.553Z,13.23
2023-07-26T08:18:54.708Z,13.19
2023-07-26T08:22:48.424Z,13.15
2023-07-26T08:26:32.795Z,13.16
2023-07-26T08:29:57.813Z,13.16
2023-07-26T08:33:54.446Z,13.18
2023-07-26T08:37:20.126Z,13.18
2023-07-26T08:41:16.300Z,13.17
2023-07-26T08:44:43.297Z,13.21
2023-07-26T08:48:38.419Z,13.20
2023-07-26T08:52:24.705Z,13.07
2023-07-26T08:56:09.304Z,12.93
2023-07-26T08:59:53.254Z,12.71
2023-07-26T09:03:19.206Z,12.54
2023-07-26T09:06:56.182Z,12.37
2023-07-26T09:10:52.513Z,12.25
2023-07-26T09:14:37.800Z,12.22
2023-07-26T09:18:04.992Z,12.09
2023-07-26T09:22:04.629Z,12.09
2023-07-26T09:25:35.297Z,12.02
2023-07-26T09:29:12.849Z,11.98
2023-07-26T09:32:45.233Z,11.94
2023-07-26T09:36:49.757Z,11.95
2023-07-26T09:40:21.454Z,11.99
2023-07-26T09:43:59.225Z,11.98
2023-07-26T09:47:40.586Z,11.95
2023-07-26T09:54:47.412Z,11.99
2023-07-26T09:58:26.727Z,12.02
2023-07-26T10:02:21.665Z,12.04
2023-07-26T10:05:49.534Z,12.04
2023-07-26T10:09:45.504Z,12.02
2023-07-26T10:13:11.558Z,11.97
2023-07-26T10:16:52.408Z,11.88
2023-07-26T10:20:47.038Z,11.80
2023-07-26T10:24:17.188Z,11.73
2023-07-26T10:27:50.653Z,11.66
2023-07-26T10:31:28.316Z,11.65
2023-07-26T10:35:06.716Z,11.59
2023-07-26T10:39:05.844Z,11.56
2023-07-26T10:42:31.085Z,11.54
2023-07-26T10:46:11.794Z,11.51
2023-07-26T10:50:06.644Z,11.45
2023-07-26T10:53:38.072Z,11.36
2023-07-26T10:57:22.079Z,11.29
2023-07-26T11:00:49.047Z,11.21
2023-07-26T11:04:46.938Z,10.96
2023-07-26T11:08:12.391Z,10.96
2023-07-26T11:12:03.693Z,10.97
2023-07-26T11:16:11.582Z,11.01
2023-07-26T11:19:47.544Z,11.10
2023-07-26T11:23:19.768Z,11.21
2023-07-26T11:26:49.821Z,11.29
2023-07-26T11:30:27.724Z,11.37
2023-07-26T11:34:18.513Z,11.46
2023-07-26T11:37:56.046Z,11.49
2023-07-26T11:41:25.483Z,11.57
2023-07-26T11:45:04.986Z,11.64
2023-07-26T11:48:38.044Z,11.78
2023-07-26T11:52:15.932Z,11.93
2023-07-26T11:55:53.190Z,11.99
2023-07-26T11:59:31.279Z,12.04
2023-07-26T12:03:27.801Z,12.18
2023-07-26T12:06:53.358Z,12.27
2023-07-26T12:10:49.714Z,12.33
2023-07-26T12:14:21.066Z,12.47
2023-07-26T12:18:04.101Z,12.56
2023-07-26T12:21:31.209Z,12.67
2023-07-26T12:25:38.597Z,12.78
2023-07-26T12:29:28.988Z,12.83
2023-07-26T12:33:14.039Z,12.77
2023-07-26T12:36:48.318Z,12.77
2023-07-26T12:40:19.639Z,12.70
2023-07-26T12:43:58.682Z,12.59
2023-07-26T12:47:53.460Z,12.51
2023-07-26T12:51:18.426Z,12.41
2023-07-26T12:55:14.981Z,12.26
2023-07-26T12:59:07.009Z,12.25
2023-07-26T13:02:52.642Z,12.12
2023-07-26T13:06:17.609Z,12.03
2023-07-26T13:10:14.160Z,11.93
2023-07-26T13:13:39.607Z,11.94
2023-07-26T13:17:17.131Z,11.96
2023-07-26T13:20:55.205Z,11.99
2023-07-26T13:24:32.753Z,12.01
2023-07-26T13:28:10.156Z,12.03
2023-07-26T13:31:47.799Z,12.06
2023-07-26T13:35:44.358Z,12.13
2023-07-26T13:39:28.099Z,12.23
2023-07-26T13:43:13.672Z,12.23
2023-07-26T13:46:38.917Z,12.26
2023-07-26T13:50:16.109Z,12.25
2023-07-26T13:54:12.723Z,12.22
2023-07-26T13:57:56.593Z,12.20
2023-07-26T14:01:40.366Z,12.22
2023-07-26T14:05:05.641Z,12.26
2023-07-26T14:09:01.664Z,12.36
2023-07-26T14:12:26.574Z,12.37
2023-07-26T14:16:20.273Z,12.38
2023-07-26T14:19:48.628Z,12.34
2023-07-26T14:23:44.986Z,12.42
2023-07-26T14:27:31.879Z,12.51
2023-07-26T14:30:57.379Z,12.57
2023-07-26T14:34:35.156Z,12.54
2023-07-26T14:38:32.738Z,12.50
2023-07-26T14:42:17.932Z,12.55
2023-07-26T14:45:44.632Z,12.53
2023-07-26T14:49:23.940Z,12.59
2023-07-26T14:53:00.000Z,12.66
2023-07-26T14:56:39.880Z,12.73
2023-07-26T15:00:14.399Z,12.76
2023-07-26T15:04:12.699Z,12.73
2023-07-26T15:07:58.085Z,12.69
2023-07-26T15:11:25.123Z,12.67
2023-07-26T15:15:01.916Z,12.66
2023-07-26T15:18:39.517Z,12.66
2023-07-26T15:22:20.569Z,12.65
2023-07-26T15:26:13.670Z,12.65
2023-07-26T15:29:38.742Z,12.68
2023-07-26T15:33:16.620Z,12.72
2023-07-26T15:37:12.860Z,12.74
2023-07-26T15:44:15.615Z,12.65
2023-07-26T15:48:13.255Z,12.67
2023-07-26T15:51:40.073Z,12.59
2023-07-26T15:55:16.416Z,12.58
2023-07-26T15:58:54.099Z,12.52
2023-07-26T16:03:02.829Z,12.50
2023-07-26T16:06:21.542Z,12.47
2023-07-26T16:09:56.908Z,12.44
2023-07-26T16:13:36.189Z,12.42
2023-07-26T16:17:13.705Z,12.39
2023-07-26T16:24:37.603Z,12.53
2023-07-26T16:28:16.176Z,12.58
2023-07-26T16:32:13.755Z,12.61
2023-07-26T16:35:39.367Z,12.64
2023-07-26T16:39:20.955Z,12.69
2023-07-26T16:42:56.673Z,12.68
2023-07-26T16:47:08.050Z,12.67
2023-07-26T16:50:37.955Z,12.71
2023-07-26T16:54:14.711Z,12.76
2023-07-26T16:57:52.474Z,12.79
2023-07-26T17:01:49.103Z,12.77
2023-07-26T17:05:14.527Z,12.80
2023-07-26T17:08:52.082Z,12.84
2023-07-26T17:12:32.372Z,12.80
2023-07-26T17:16:09.872Z,12.76
2023-07-26T17:19:45.553Z,12.76
2023-07-26T17:23:42.572Z,12.78
2023-07-26T17:27:07.735Z,12.82
2023-07-26T17:31:04.591Z,12.80
2023-07-26T17:34:50.511Z,12.83
2023-07-26T17:38:15.574Z,12.81
2023-07-26T17:42:12.139Z,12.78
2023-07-26T17:45:37.450Z,12.78
2023-07-26T17:49:34.029Z,12.83
2023-07-26T17:53:00.566Z,12.91
2023-07-26T17:56:36.662Z,12.91
2023-07-26T18:00:15.575Z,12.98
2023-07-26T18:04:10.934Z,12.96
2023-07-26T18:07:55.078Z,12.92
2023-07-26T18:11:21.367Z,12.82
2023-07-26T18:14:57.881Z,12.67
2023-07-26T18:18:35.820Z,12.74
2023-07-26T18:22:13.061Z,12.78
2023-07-26T18:26:09.726Z,12.68
2023-07-26T18:29:35.125Z,12.60
2023-07-26T18:33:12.978Z,12.72
2023-07-26T18:36:51.966Z,12.80
2023-07-26T18:40:27.988Z,12.82
2023-07-26T18:44:05.386Z,12.77
2023-07-26T18:47:43.035Z,12.71
2023-07-26T18:51:20.854Z,12.77
2023-07-26T18:54:58.353Z,12.78
2023-07-26T18:58:36.146Z,12.72
2023-07-26T19:02:32.746Z,12.72
2023-07-26T19:05:58.405Z,12.75
2023-07-26T19:09:35.793Z,12.82
2023-07-26T19:13:13.370Z,12.80
2023-07-26T19:16:50.980Z,12.72
2023-07-26T19:20:28.770Z,12.66
2023-07-26T19:24:25.198Z,12.69
2023-07-26T19:28:09.789Z,12.72
2023-07-26T19:31:34.672Z,12.74
2023-07-26T19:35:13.495Z,12.71
2023-07-26T19:38:49.899Z,12.75
2023-07-26T19:42:27.676Z,12.73
2023-07-26T19:46:11.935Z,12.64
2023-07-26T19:50:02.444Z,12.62
2023-07-26T19:53:47.226Z,12.55
2023-07-26T19:57:12.300Z,12.55
2023-07-26T20:00:49.883Z,12.45
2023-07-26T20:04:27.965Z,12.26
2023-07-26T20:08:05.328Z,12.02
2023-07-26T20:11:43.569Z,11.92
2023-07-26T20:15:21.556Z,11.79
2023-07-26T20:18:58.603Z,11.71
2023-07-26T20:22:55.145Z,11.66
2023-07-26T20:26:20.462Z,11.54
2023-07-26T20:29:59.411Z,11.52
2023-07-26T20:33:36.472Z,11.58
2023-07-26T20:37:13.701Z,11.61
2023-07-26T20:40:51.489Z,11.71
2023-07-26T20:44:29.119Z,11.86
2023-07-26T20:48:07.182Z,11.92
2023-07-26T20:51:46.141Z,11.95
2023-07-26T20:55:40.711Z,11.90
2023-07-26T20:59:05.754Z,11.85
2023-07-26T21:02:43.464Z,11.85
2023-07-26T21:06:21.155Z,11.81
2023-07-26T21:09:58.869Z,11.77
2023-07-26T21:13:36.534Z,11.74
2023-07-26T21:17:14.171Z,11.65
2023-07-26T21:20:51.995Z,11.66
2023-07-26T21:24:29.546Z,11.65
2023-07-26T21:28:07.122Z,11.69
2023-07-26T21:31:44.773Z,11.75
2023-07-26T21:35:22.380Z,11.81
2023-07-26T21:39:00.344Z,11.83
2023-07-26T21:42:37.800Z,11.87
2023-07-26T21:46:15.514Z,11.94
2023-07-26T21:49:53.110Z,12.02
2023-07-26T21:53:30.949Z,12.08
2023-07-26T21:57:08.514Z,12.14
2023-07-26T22:00:47.295Z,12.20
2023-07-26T22:04:24.071Z,12.25
2023-07-26T22:08:01.683Z,12.27
2023-07-26T22:11:40.874Z,12.28
2023-07-26T22:15:17.193Z,12.25
2023-07-26T22:18:55.126Z,12.19
2023-07-26T22:22:51.138Z,12.17
2023-07-26T22:26:18.044Z,12.09
2023-07-26T22:29:54.403Z,12.00
2023-07-26T22:33:31.869Z,12.00
2023-07-26T22:37:09.938Z,11.98
2023-07-26T22:40:47.077Z,11.90
2023-07-26T22:44:24.865Z,11.81
2023-07-26T22:48:02.405Z,11.74
2023-07-26T22:51:39.994Z,11.72
2023-07-26T22:55:19.570Z,11.67
2023-07-26T22:58:55.461Z,11.58
2023-07-26T23:02:33.051Z,11.51
2023-07-26T23:06:10.808Z,11.34
2023-07-26T23:09:48.450Z,11.20
2023-07-26T23:13:30.258Z,11.06
2023-07-26T23:17:03.801Z,10.96
2023-07-26T23:20:41.412Z,10.98
2023-07-26T23:24:19.144Z,11.07
2023-07-26T23:27:57.022Z,11.12
2023-07-26T23:31:34.507Z,11.10
2023-07-26T23:35:12.132Z,11.07
2023-07-26T23:39:08.713Z,11.07
2023-07-26T23:42:33.813Z,11.05
2023-07-26T23:46:11.627Z,11.04
2023-07-26T23:49:49.267Z,11.01
2023-07-26T23:53:26.664Z,10.98
2023-07-26T23:57:04.693Z,10.90
